sensor_id;sensor_type;location;lat;lon;timestamp;P1;P2;P0
13030;PMS7003;6582;54.644;9.760;2022-09-13T00:05:01;52.1;44.4;
13030;PMS7003;6582;54.644;9.760;2022-09-13T00:10:02;52.9;44.9;
13030;PMS7003;6582;54.644;9.760;2022-09-13T00:15:01;52.7;44.7;
13030;PMS7003;6582;54.644;9.760;2022-09-13T00:20:07;53.6;45.2;
13030;PMS7003;6582;54.644;9.760;2022-09-13T00:25:02;54.6;45.6;
13030;PMS7003;6582;54.644;9.760;2022-09-13T00:30:02;55.5;46.2;
13030;PMS7003;6582;54.644;9.760;2022-09-13T00:40:07;56.2;46.7;
13030;PMS7003;6582;54.644;9.760;2022-09-13T00:45:15;60.8;50.4;
13030;PMS7003;6582;54.644;9.760;2022-09-13T00:50:16;63.2;52.1;
13030;PMS7003;6582;54.644;9.760;2022-09-13T00:55:08;63.7;52.6;
13030;PMS7003;6582;54.644;9.760;2022-09-13T01:00:07;64.6;53.1;
13030;PMS7003;6582;54.644;9.760;2022-09-13T01:05:18;64.9;53.3;
13030;PMS7003;6582;54.644;9.760;2022-09-13T01:10:03;61.6;50.7;
13030;PMS7003;6582;54.644;9.760;2022-09-13T01:15:03;60.9;50.1;
13030;PMS7003;6582;54.644;9.760;2022-09-13T01:20:02;61.8;50.3;
13030;PMS7003;6582;54.644;9.760;2022-09-13T01:25:05;61.1;50.1;
13030;PMS7003;6582;54.644;9.760;2022-09-13T01:30:04;61.0;50.0;
13030;PMS7003;6582;54.644;9.760;2022-09-13T01:35:08;61.8;50.5;
13030;PMS7003;6582;54.644;9.760;2022-09-13T01:40:15;61.5;50.6;
13030;PMS7003;6582;54.644;9.760;2022-09-13T01:45:09;60.6;50.2;
13030;PMS7003;6582;54.644;9.760;2022-09-13T01:50:06;60.8;50.2;
13030;PMS7003;6582;54.644;9.760;2022-09-13T01:55:09;63.8;52.4;
13030;PMS7003;6582;54.644;9.760;2022-09-13T02:00:04;63.8;52.4;
13030;PMS7003;6582;54.644;9.760;2022-09-13T02:05:14;64.8;52.8;
13030;PMS7003;6582;54.644;9.760;2022-09-13T02:10:05;64.6;52.8;
13030;PMS7003;6582;54.644;9.760;2022-09-13T02:15:07;64.6;52.6;
13030;PMS7003;6582;54.644;9.760;2022-09-13T02:20:02;61.6;50.7;
13030;PMS7003;6582;54.644;9.760;2022-09-13T02:25:08;62.0;50.4;
13030;PMS7003;6582;54.644;9.760;2022-09-13T02:35:03;61.6;49.9;
13030;PMS7003;6582;54.644;9.760;2022-09-13T02:40:03;63.8;51.9;
13030;PMS7003;6582;54.644;9.760;2022-09-13T02:45:02;64.4;52.4;
13030;PMS7003;6582;54.644;9.760;2022-09-13T03:10:04;63.2;51.8;
13030;PMS7003;6582;54.644;9.760;2022-09-13T03:15:07;61.7;51.0;
13030;PMS7003;6582;54.644;9.760;2022-09-13T03:20:05;59.9;49.7;
13030;PMS7003;6582;54.644;9.760;2022-09-13T03:25:05;59.1;48.9;
13030;PMS7003;6582;54.644;9.760;2022-09-13T03:30:05;59.0;48.8;
13030;PMS7003;6582;54.644;9.760;2022-09-13T03:35:24;57.7;48.0;
13030;PMS7003;6582;54.644;9.760;2022-09-13T03:50:07;58.6;48.6;
13030;PMS7003;6582;54.644;9.760;2022-09-13T03:55:11;57.3;47.5;
13030;PMS7003;6582;54.644;9.760;2022-09-13T04:00:06;56.3;46.9;
13030;PMS7003;6582;54.644;9.760;2022-09-13T04:05:01;55.3;45.7;
13030;PMS7003;6582;54.644;9.760;2022-09-13T04:10:01;53.8;44.4;
13030;PMS7003;6582;54.644;9.760;2022-09-13T04:15:02;51.6;42.7;
13030;PMS7003;6582;54.644;9.760;2022-09-13T04:20:01;50.4;41.5;
13030;PMS7003;6582;54.644;9.760;2022-09-13T04:25:03;49.2;40.4;
13030;PMS7003;6582;54.644;9.760;2022-09-13T04:30:01;48.4;40.1;
13030;PMS7003;6582;54.644;9.760;2022-09-13T04:35:06;47.7;40.0;
13030;PMS7003;6582;54.644;9.760;2022-09-13T04:40:01;47.2;39.9;
13030;PMS7003;6582;54.644;9.760;2022-09-13T04:45:01;46.5;39.5;
13030;PMS7003;6582;54.644;9.760;2022-09-13T04:50:04;45.4;39.0;
13030;PMS7003;6582;54.644;9.760;2022-09-13T04:55:01;44.4;38.4;
13030;PMS7003;6582;54.644;9.760;2022-09-13T05:00:02;44.9;38.4;
13030;PMS7003;6582;54.644;9.760;2022-09-13T05:05:01;44.7;38.4;
13030;PMS7003;6582;54.644;9.760;2022-09-13T05:10:01;44.2;38.4;
13030;PMS7003;6582;54.644;9.760;2022-09-13T05:15:06;44.0;38.5;
13030;PMS7003;6582;54.644;9.760;2022-09-13T05:20:02;48.2;41.9;
13030;PMS7003;6582;54.644;9.760;2022-09-13T05:25:06;46.6;41.2;
13030;PMS7003;6582;54.644;9.760;2022-09-13T05:30:01;45.7;40.6;
13030;PMS7003;6582;54.644;9.760;2022-09-13T05:35:01;46.1;40.7;
13030;PMS7003;6582;54.644;9.760;2022-09-13T05:40:14;46.9;41.0;
13030;PMS7003;6582;54.644;9.760;2022-09-13T05:45:11;42.5;37.9;
13030;PMS7003;6582;54.644;9.760;2022-09-13T05:50:38;43.8;38.7;
13030;PMS7003;6582;54.644;9.760;2022-09-13T05:55:01;44.4;39.0;
13030;PMS7003;6582;54.644;9.760;2022-09-13T06:00:01;45.0;39.8;
13030;PMS7003;6582;54.644;9.760;2022-09-13T06:05:01;45.1;39.7;
13030;PMS7003;6582;54.644;9.760;2022-09-13T06:10:01;45.4;39.8;
13030;PMS7003;6582;54.644;9.760;2022-09-13T06:15:06;45.8;40.0;
13030;PMS7003;6582;54.644;9.760;2022-09-13T06:20:06;46.3;40.3;
13030;PMS7003;6582;54.644;9.760;2022-09-13T06:25:01;45.9;39.8;
13030;PMS7003;6582;54.644;9.760;2022-09-13T06:30:06;46.3;40.2;
13030;PMS7003;6582;54.644;9.760;2022-09-13T06:35:06;47.2;40.8;
13030;PMS7003;6582;54.644;9.760;2022-09-13T06:40:06;47.4;41.0;
13030;PMS7003;6582;54.644;9.760;2022-09-13T06:45:02;47.6;41.3;
13030;PMS7003;6582;54.644;9.760;2022-09-13T06:50:01;48.7;42.2;
13030;PMS7003;6582;54.644;9.760;2022-09-13T06:55:01;48.6;41.8;
13030;PMS7003;6582;54.644;9.760;2022-09-13T07:00:01;48.4;41.6;
13030;PMS7003;6582;54.644;9.760;2022-09-13T07:05:11;47.5;40.9;
13030;PMS7003;6582;54.644;9.760;2022-09-13T07:10:06;47.7;40.9;
13030;PMS7003;6582;54.644;9.760;2022-09-13T07:15:11;48.7;41.7;
13030;PMS7003;6582;54.644;9.760;2022-09-13T07:20:11;48.9;42.1;
13030;PMS7003;6582;54.644;9.760;2022-09-13T07:25:06;48.2;41.8;
13030;PMS7003;6582;54.644;9.760;2022-09-13T07:30:01;49.1;42.4;
13030;PMS7003;6582;54.644;9.760;2022-09-13T07:35:01;48.7;41.8;
13030;PMS7003;6582;54.644;9.760;2022-09-13T07:40:06;46.5;40.0;
13030;PMS7003;6582;54.644;9.760;2022-09-13T07:45:07;46.3;40.0;
13030;PMS7003;6582;54.644;9.760;2022-09-13T07:50:01;46.2;40.0;
13030;PMS7003;6582;54.644;9.760;2022-09-13T07:55:01;46.0;39.9;
13030;PMS7003;6582;54.644;9.760;2022-09-13T08:00:07;46.6;40.6;
13030;PMS7003;6582;54.644;9.760;2022-09-13T08:05:01;47.4;41.3;
13030;PMS7003;6582;54.644;9.760;2022-09-13T08:10:11;47.2;41.2;
13030;PMS7003;6582;54.644;9.760;2022-09-13T08:15:06;47.6;41.4;
13030;PMS7003;6582;54.644;9.760;2022-09-13T08:20:01;47.3;41.3;
13030;PMS7003;6582;54.644;9.760;2022-09-13T08:25:01;46.6;40.7;
13030;PMS7003;6582;54.644;9.760;2022-09-13T08:30:01;45.9;40.1;
13030;PMS7003;6582;54.644;9.760;2022-09-13T08:35:01;46.5;40.3;
13030;PMS7003;6582;54.644;9.760;2022-09-13T08:40:01;47.3;40.9;
13030;PMS7003;6582;54.644;9.760;2022-09-13T08:45:01;51.0;43.8;
13030;PMS7003;6582;54.644;9.760;2022-09-13T09:10:10;54.4;46.2;
13030;PMS7003;6582;54.644;9.760;2022-09-13T09:15:15;54.6;46.1;
13030;PMS7003;6582;54.644;9.760;2022-09-13T09:20:05;54.7;46.1;
13030;PMS7003;6582;54.644;9.760;2022-09-13T09:25:02;54.9;46.3;
13030;PMS7003;6582;54.644;9.760;2022-09-13T09:30:03;54.8;46.3;
13030;PMS7003;6582;54.644;9.760;2022-09-13T09:50:09;66.8;55.0;
13030;PMS7003;6582;54.644;9.760;2022-09-13T10:10:06;63.6;52.6;
13030;PMS7003;6582;54.644;9.760;2022-09-13T10:30:03;62.4;51.2;
13030;PMS7003;6582;54.644;9.760;2022-09-13T10:35:06;63.8;52.1;
13030;PMS7003;6582;54.644;9.760;2022-09-13T10:40:04;68.8;58.4;
13030;PMS7003;6582;54.644;9.760;2022-09-13T10:45:03;66.3;55.9;
13030;PMS7003;6582;54.644;9.760;2022-09-13T10:50:11;65.4;54.8;
13030;PMS7003;6582;54.644;9.760;2022-09-13T11:10:07;52.4;44.0;
13030;PMS7003;6582;54.644;9.760;2022-09-13T11:15:05;51.0;43.2;
13030;PMS7003;6582;54.644;9.760;2022-09-13T12:00:14;58.4;49.2;
13030;PMS7003;6582;54.644;9.760;2022-09-13T12:05:17;58.8;49.4;
13030;PMS7003;6582;54.644;9.760;2022-09-13T12:10:05;58.7;49.0;
13030;PMS7003;6582;54.644;9.760;2022-09-13T12:15:18;59.9;49.8;
13030;PMS7003;6582;54.644;9.760;2022-09-13T12:20:02;61.3;51.0;
13030;PMS7003;6582;54.644;9.760;2022-09-13T12:25:02;61.8;51.0;
13030;PMS7003;6582;54.644;9.760;2022-09-13T12:50:20;57.2;47.4;
13030;PMS7003;6582;54.644;9.760;2022-09-13T13:10:01;63.8;53.0;
13030;PMS7003;6582;54.644;9.760;2022-09-13T13:15:04;60.0;50.1;
13030;PMS7003;6582;54.644;9.760;2022-09-13T13:40:10;63.2;52.0;
13030;PMS7003;6582;54.644;9.760;2022-09-13T13:45:16;60.7;50.3;
13030;PMS7003;6582;54.644;9.760;2022-09-13T13:50:12;59.0;49.1;
13030;PMS7003;6582;54.644;9.760;2022-09-13T14:10:12;52.2;45.0;
13030;PMS7003;6582;54.644;9.760;2022-09-13T14:15:14;49.7;42.8;
13030;PMS7003;6582;54.644;9.760;2022-09-13T14:20:04;51.0;43.7;
13030;PMS7003;6582;54.644;9.760;2022-09-13T14:40:10;42.2;37.4;
13030;PMS7003;6582;54.644;9.760;2022-09-13T14:45:01;42.2;37.4;
13030;PMS7003;6582;54.644;9.760;2022-09-13T14:50:03;42.3;37.2;
13030;PMS7003;6582;54.644;9.760;2022-09-13T14:55:02;44.7;39.0;
13030;PMS7003;6582;54.644;9.760;2022-09-13T15:00:04;44.2;38.7;
13030;PMS7003;6582;54.644;9.760;2022-09-13T15:05:03;46.0;39.9;
13030;PMS7003;6582;54.644;9.760;2022-09-13T15:10:06;46.8;40.2;
13030;PMS7003;6582;54.644;9.760;2022-09-13T15:30:04;54.4;45.4;
13030;PMS7003;6582;54.644;9.760;2022-09-13T15:35:02;53.5;45.0;
13030;PMS7003;6582;54.644;9.760;2022-09-13T15:40:10;52.9;44.7;
13030;PMS7003;6582;54.644;9.760;2022-09-13T15:45:07;52.3;44.4;
13030;PMS7003;6582;54.644;9.760;2022-09-13T15:50:02;51.5;43.8;
13030;PMS7003;6582;54.644;9.760;2022-09-13T15:55:02;49.8;42.6;
13030;PMS7003;6582;54.644;9.760;2022-09-13T16:00:09;47.8;41.2;
13030;PMS7003;6582;54.644;9.760;2022-09-13T16:05:02;45.6;39.7;
13030;PMS7003;6582;54.644;9.760;2022-09-13T16:10:03;43.7;38.4;
13030;PMS7003;6582;54.644;9.760;2022-09-13T16:15:02;41.8;37.3;
13030;PMS7003;6582;54.644;9.760;2022-09-13T16:20:02;41.2;37.0;
13030;PMS7003;6582;54.644;9.760;2022-09-13T16:25:02;40.8;36.8;
13030;PMS7003;6582;54.644;9.760;2022-09-13T16:30:02;41.0;36.7;
13030;PMS7003;6582;54.644;9.760;2022-09-13T16:35:02;41.4;36.9;
13030;PMS7003;6582;54.644;9.760;2022-09-13T16:40:07;41.9;37.1;
13030;PMS7003;6582;54.644;9.760;2022-09-13T16:45:02;48.4;42.2;
13030;PMS7003;6582;54.644;9.760;2022-09-13T16:50:03;49.1;42.6;
13030;PMS7003;6582;54.644;9.760;2022-09-13T16:55:03;49.2;43.0;
13030;PMS7003;6582;54.644;9.760;2022-09-13T17:00:03;49.0;42.8;
13030;PMS7003;6582;54.644;9.760;2022-09-13T17:10:03;42.1;37.6;
13030;PMS7003;6582;54.644;9.760;2022-09-13T17:15:07;41.7;37.2;
13030;PMS7003;6582;54.644;9.760;2022-09-13T17:20:05;41.0;36.8;
13030;PMS7003;6582;54.644;9.760;2022-09-13T17:25:02;40.9;36.8;
13030;PMS7003;6582;54.644;9.760;2022-09-13T17:30:03;40.6;36.6;
13030;PMS7003;6582;54.644;9.760;2022-09-13T17:35:03;40.2;36.2;
13030;PMS7003;6582;54.644;9.760;2022-09-13T17:40:02;39.1;35.7;
13030;PMS7003;6582;54.644;9.760;2022-09-13T17:45:07;39.8;36.1;
13030;PMS7003;6582;54.644;9.760;2022-09-13T17:50:07;39.0;35.7;
13030;PMS7003;6582;54.644;9.760;2022-09-13T17:55:02;41.2;37.4;
13030;PMS7003;6582;54.644;9.760;2022-09-13T18:00:03;40.7;37.1;
13030;PMS7003;6582;54.644;9.760;2022-09-13T18:05:14;41.2;37.3;
13030;PMS7003;6582;54.644;9.760;2022-09-13T18:10:02;40.8;37.2;
13030;PMS7003;6582;54.644;9.760;2022-09-13T18:15:07;40.9;37.2;
13030;PMS7003;6582;54.644;9.760;2022-09-13T18:20:03;38.4;35.4;
13030;PMS7003;6582;54.644;9.760;2022-09-13T18:25:02;39.6;35.8;
13030;PMS7003;6582;54.644;9.760;2022-09-13T18:30:02;40.4;36.5;
13030;PMS7003;6582;54.644;9.760;2022-09-13T18:35:02;40.8;36.8;
13030;PMS7003;6582;54.644;9.760;2022-09-13T18:40:02;41.4;37.2;
13030;PMS7003;6582;54.644;9.760;2022-09-13T18:45:02;40.3;36.5;
13030;PMS7003;6582;54.644;9.760;2022-09-13T18:50:02;39.1;36.1;
13030;PMS7003;6582;54.644;9.760;2022-09-13T18:55:02;38.0;35.3;
13030;PMS7003;6582;54.644;9.760;2022-09-13T19:00:06;37.8;35.1;
13030;PMS7003;6582;54.644;9.760;2022-09-13T19:05:07;37.4;34.7;
13030;PMS7003;6582;54.644;9.760;2022-09-13T19:10:02;38.9;35.5;
13030;PMS7003;6582;54.644;9.760;2022-09-13T19:15:02;39.4;35.9;
13030;PMS7003;6582;54.644;9.760;2022-09-13T19:20:02;40.7;36.8;
13030;PMS7003;6582;54.644;9.760;2022-09-13T19:25:02;46.4;40.9;
13030;PMS7003;6582;54.644;9.760;2022-09-13T19:30:02;48.8;42.5;
13030;PMS7003;6582;54.644;9.760;2022-09-13T19:35:02;48.5;42.4;
13030;PMS7003;6582;54.644;9.760;2022-09-13T19:40:02;48.8;42.6;
13030;PMS7003;6582;54.644;9.760;2022-09-13T19:45:02;49.6;42.7;
13030;PMS7003;6582;54.644;9.760;2022-09-13T19:50:02;45.8;39.7;
13030;PMS7003;6582;54.644;9.760;2022-09-13T19:55:02;46.0;39.6;
13030;PMS7003;6582;54.644;9.760;2022-09-13T20:00:07;47.8;41.0;
13030;PMS7003;6582;54.644;9.760;2022-09-13T20:05:02;49.5;42.1;
13030;PMS7003;6582;54.644;9.760;2022-09-13T20:10:07;48.8;41.9;
13030;PMS7003;6582;54.644;9.760;2022-09-13T20:15:08;48.4;41.7;
13030;PMS7003;6582;54.644;9.760;2022-09-13T20:20:02;48.6;42.2;
13030;PMS7003;6582;54.644;9.760;2022-09-13T20:25:02;50.2;43.3;
13030;PMS7003;6582;54.644;9.760;2022-09-13T20:30:02;48.9;42.2;
13030;PMS7003;6582;54.644;9.760;2022-09-13T20:35:02;49.1;42.2;
13030;PMS7003;6582;54.644;9.760;2022-09-13T20:40:02;48.5;41.7;
13030;PMS7003;6582;54.644;9.760;2022-09-13T20:45:02;46.4;40.2;
13030;PMS7003;6582;54.644;9.760;2022-09-13T20:50:07;44.6;38.8;
13030;PMS7003;6582;54.644;9.760;2022-09-13T20:55:07;44.9;39.3;
13030;PMS7003;6582;54.644;9.760;2022-09-13T21:00:12;45.8;40.2;
13030;PMS7003;6582;54.644;9.760;2022-09-13T21:05:02;45.7;40.3;
13030;PMS7003;6582;54.644;9.760;2022-09-13T21:10:02;48.8;42.4;
13030;PMS7003;6582;54.644;9.760;2022-09-13T21:15:07;50.3;43.6;
13030;PMS7003;6582;54.644;9.760;2022-09-13T21:20:03;53.1;45.5;
13030;PMS7003;6582;54.644;9.760;2022-09-13T21:25:07;51.8;44.6;
13030;PMS7003;6582;54.644;9.760;2022-09-13T21:30:02;51.4;44.2;
13030;PMS7003;6582;54.644;9.760;2022-09-13T21:35:02;49.8;43.2;
13030;PMS7003;6582;54.644;9.760;2022-09-13T21:40:02;48.2;42.0;
13030;PMS7003;6582;54.644;9.760;2022-09-13T21:45:02;45.8;40.2;
13030;PMS7003;6582;54.644;9.760;2022-09-13T21:50:02;47.4;41.0;
13030;PMS7003;6582;54.644;9.760;2022-09-13T21:55:01;49.0;42.2;
13030;PMS7003;6582;54.644;9.760;2022-09-13T22:00:02;50.0;42.8;
13030;PMS7003;6582;54.644;9.760;2022-09-13T22:05:01;53.6;45.6;
13030;PMS7003;6582;54.644;9.760;2022-09-13T22:10:02;55.9;47.2;
13030;PMS7003;6582;54.644;9.760;2022-09-13T22:15:01;57.2;48.4;
13030;PMS7003;6582;54.644;9.760;2022-09-13T22:20:03;58.3;49.2;
13030;PMS7003;6582;54.644;9.760;2022-09-13T22:25:03;55.3;47.2;
13030;PMS7003;6582;54.644;9.760;2022-09-13T22:30:03;50.4;43.6;
13030;PMS7003;6582;54.644;9.760;2022-09-13T22:35:02;46.9;41.4;
13030;PMS7003;6582;54.644;9.760;2022-09-13T22:40:07;43.9;39.2;
13030;PMS7003;6582;54.644;9.760;2022-09-13T22:45:12;42.6;38.0;
13030;PMS7003;6582;54.644;9.760;2022-09-13T22:50:07;48.7;42.5;
13030;PMS7003;6582;54.644;9.760;2022-09-13T22:55:02;50.5;43.6;
13030;PMS7003;6582;54.644;9.760;2022-09-13T23:00:07;53.8;46.0;
13030;PMS7003;6582;54.644;9.760;2022-09-13T23:05:03;56.8;48.2;
13030;PMS7003;6582;54.644;9.760;2022-09-13T23:10:07;57.8;48.9;
13030;PMS7003;6582;54.644;9.760;2022-09-13T23:15:02;53.4;45.4;
13030;PMS7003;6582;54.644;9.760;2022-09-13T23:20:01;53.7;45.5;
13030;PMS7003;6582;54.644;9.760;2022-09-13T23:25:02;51.8;44.1;
13030;PMS7003;6582;54.644;9.760;2022-09-13T23:30:01;51.1;43.4;
13030;PMS7003;6582;54.644;9.760;2022-09-13T23:35:01;51.2;43.8;
13030;PMS7003;6582;54.644;9.760;2022-09-13T23:40:02;52.8;45.1;
13030;PMS7003;6582;54.644;9.760;2022-09-13T23:45:02;54.0;46.1;
13030;PMS7003;6582;54.644;9.760;2022-09-13T23:50:02;57.0;48.3;
13030;PMS7003;6582;54.644;9.760;2022-09-13T23:55:01;58.9;49.8;
